sensor_id;sensor_type;location;lat;lon;timestamp;pressure;altitude;pressure_sealevel;temperature;humidity
10097;BME280;5087;42.662;23.466;2023-08-06T00:00:40;94324.03;;;17.37;100.00
10097;BME280;5087;42.662;23.466;2023-08-06T00:03:07;94290.69;;;17.28;100.00
10097;BME280;5087;42.662;23.466;2023-08-06T00:05:34;94296.59;;;17.40;100.00
10097;BME280;5087;42.662;23.466;2023-08-06T00:08:02;94289.53;;;17.39;100.00
10097;BME280;5087;42.662;23.466;2023-08-06T00:10:29;94324.47;;;17.50;100.00
10097;BME280;5087;42.662;23.466;2023-08-06T00:12:58;94276.19;;;17.23;100.00
10097;BME280;5087;42.662;23.466;2023-08-06T00:15:25;94298.91;;;17.31;100.00
10097;BME280;5087;42.662;23.466;2023-08-06T00:17:52;94297.25;;;17.05;100.00
10097;BME280;5087;42.662;23.466;2023-08-06T00:20:20;94274.84;;;16.92;100.00
10097;BME280;5087;42.662;23.466;2023-08-06T00:22:47;94268.09;;;16.75;100.00
10097;BME280;5087;42.662;23.466;2023-08-06T00:25:14;94261.88;;;16.82;100.00
10097;BME280;5087;42.662;23.466;2023-08-06T00:27:41;94273.69;;;16.93;100.00
10097;BME280;5087;42.662;23.466;2023-08-06T00:30:10;94274.53;;;17.01;100.00
10097;BME280;5087;42.662;23.466;2023-08-06T00:32:38;94268.28;;;17.07;100.00
10097;BME280;5087;42.662;23.466;2023-08-06T00:35:06;94300.41;;;17.11;100.00
10097;BME280;5087;42.662;23.466;2023-08-06T00:37:33;94271.38;;;16.99;100.00
10097;BME280;5087;42.662;23.466;2023-08-06T00:40:01;94251.31;;;16.84;100.00
10097;BME280;5087;42.662;23.466;2023-08-06T00:42:38;94270.44;;;16.73;100.00
10097;BME280;5087;42.662;23.466;2023-08-06T00:45:06;94200.94;;;16.36;100.00
10097;BME280;5087;42.662;23.466;2023-08-06T00:47:35;94267.31;;;16.74;100.00
10097;BME280;5087;42.662;23.466;2023-08-06T00:50:06;94268.47;;;16.70;100.00
10097;BME280;5087;42.662;23.466;2023-08-06T00:52:33;94249.31;;;16.73;100.00
10097;BME280;5087;42.662;23.466;2023-08-06T00:55:01;94241.44;;;16.68;100.00
10097;BME280;5087;42.662;23.466;2023-08-06T00:57:28;94228.22;;;16.92;100.00
10097;BME280;5087;42.662;23.466;2023-08-06T00:59:59;94205.44;;;16.66;100.00
10097;BME280;5087;42.662;23.466;2023-08-06T01:02:26;94237.63;;;16.91;100.00
10097;BME280;5087;42.662;23.466;2023-08-06T01:04:58;94253.38;;;17.01;100.00
10097;BME280;5087;42.662;23.466;2023-08-06T01:07:37;94240.03;;;16.96;100.00
10097;BME280;5087;42.662;23.466;2023-08-06T01:10:21;94229.84;;;16.93;100.00
10097;BME280;5087;42.662;23.466;2023-08-06T01:12:59;94222.28;;;16.75;100.00
10097;BME280;5087;42.662;23.466;2023-08-06T01:15:35;94208.94;;;16.67;100.00
10097;BME280;5087;42.662;23.466;2023-08-06T01:18:09;94201.50;;;16.67;100.00
10097;BME280;5087;42.662;23.466;2023-08-06T01:20:38;94206.22;;;16.70;100.00
10097;BME280;5087;42.662;23.466;2023-08-06T01:23:05;94207.91;;;16.93;100.00
10097;BME280;5087;42.662;23.466;2023-08-06T01:25:40;94207.19;;;17.11;100.00
10097;BME280;5087;42.662;23.466;2023-08-06T01:28:15;94199.75;;;17.22;100.00
10097;BME280;5087;42.662;23.466;2023-08-06T01:30:52;94192.75;;;17.35;100.00
10097;BME280;5087;42.662;23.466;2023-08-06T01:33:22;94172.34;;;17.33;100.00
10097;BME280;5087;42.662;23.466;2023-08-06T01:35:54;94176.66;;;17.23;100.00
10097;BME280;5087;42.662;23.466;2023-08-06T01:38:24;94185.69;;;17.42;100.00
10097;BME280;5087;42.662;23.466;2023-08-06T01:40:54;94183.34;;;17.40;100.00
10097;BME280;5087;42.662;23.466;2023-08-06T01:43:27;94201.00;;;17.50;100.00
10097;BME280;5087;42.662;23.466;2023-08-06T01:45:56;94192.75;;;17.35;100.00
10097;BME280;5087;42.662;23.466;2023-08-06T01:48:24;94180.97;;;17.31;100.00
10097;BME280;5087;42.662;23.466;2023-08-06T01:50:58;94178.19;;;17.02;100.00
10097;BME280;5087;42.662;23.466;2023-08-06T01:53:26;94179.66;;;16.85;100.00
10097;BME280;5087;42.662;23.466;2023-08-06T01:55:53;94163.53;;;16.66;100.00
10097;BME280;5087;42.662;23.466;2023-08-06T01:58:21;94194.56;;;16.88;100.00
10097;BME280;5087;42.662;23.466;2023-08-06T02:00:49;94196.88;;;16.86;100.00
10097;BME280;5087;42.662;23.466;2023-08-06T02:03:16;94183.53;;;16.70;100.00
10097;BME280;5087;42.662;23.466;2023-08-06T02:05:43;94157.69;;;16.74;100.00
10097;BME280;5087;42.662;23.466;2023-08-06T02:08:12;94178.50;;;16.90;100.00
10097;BME280;5087;42.662;23.466;2023-08-06T02:10:40;94177.00;;;16.96;100.00
10097;BME280;5087;42.662;23.466;2023-08-06T02:13:07;94165.19;;;16.92;100.00
10097;BME280;5087;42.662;23.466;2023-08-06T02:15:34;94159.75;;;16.99;100.00
10097;BME280;5087;42.662;23.466;2023-08-06T02:18:02;94171.13;;;17.08;100.00
10097;BME280;5087;42.662;23.466;2023-08-06T02:20:29;94175.84;;;17.12;100.00
10097;BME280;5087;42.662;23.466;2023-08-06T02:22:56;94168.41;;;17.16;100.00
10097;BME280;5087;42.662;23.466;2023-08-06T02:25:25;94175.06;;;17.22;100.00
10097;BME280;5087;42.662;23.466;2023-08-06T02:27:53;94153.09;;;17.04;100.00
10097;BME280;5087;42.662;23.466;2023-08-06T02:30:20;94197.03;;;17.29;100.00
10097;BME280;5087;42.662;23.466;2023-08-06T02:32:47;94199.38;;;17.16;100.00
10097;BME280;5087;42.662;23.466;2023-08-06T02:35:14;94199.78;;;17.33;100.00
10097;BME280;5087;42.662;23.466;2023-08-06T02:37:42;94229.97;;;17.47;100.00
10097;BME280;5087;42.662;23.466;2023-08-06T02:40:10;94227.63;;;17.38;100.00
10097;BME280;5087;42.662;23.466;2023-08-06T02:42:39;94220.56;;;17.37;100.00
10097;BME280;5087;42.662;23.466;2023-08-06T02:45:07;94219.78;;;17.33;100.00
10097;BME280;5087;42.662;23.466;2023-08-06T02:47:34;94226.84;;;17.34;100.00
10097;BME280;5087;42.662;23.466;2023-08-06T02:50:02;94218.56;;;17.16;100.00
10097;BME280;5087;42.662;23.466;2023-08-06T02:52:30;94225.22;;;17.19;100.00
10097;BME280;5087;42.662;23.466;2023-08-06T02:54:57;94223.25;;;17.19;100.00
10097;BME280;5087;42.662;23.466;2023-08-06T02:57:28;94224.13;;;17.45;100.00
10097;BME280;5087;42.662;23.466;2023-08-06T02:59:57;94212.72;;;17.39;100.00
10097;BME280;5087;42.662;23.466;2023-08-06T03:02:24;94209.59;;;17.37;100.00
10097;BME280;5087;42.662;23.466;2023-08-06T03:04:59;94183.72;;;17.24;100.00
10097;BME280;5087;42.662;23.466;2023-08-06T03:07:30;94166.84;;;17.22;100.00
10097;BME280;5087;42.662;23.466;2023-08-06T03:10:08;94146.47;;;17.08;100.00
10097;BME280;5087;42.662;23.466;2023-08-06T03:12:35;94174.31;;;17.25;100.00
10097;BME280;5087;42.662;23.466;2023-08-06T03:15:14;94179.41;;;17.45;100.00
10097;BME280;5087;42.662;23.466;2023-08-06T03:17:43;94169.63;;;17.40;100.00
10097;BME280;5087;42.662;23.466;2023-08-06T03:20:11;94163.34;;;17.25;100.00
10097;BME280;5087;42.662;23.466;2023-08-06T03:22:39;94158.63;;;17.15;100.00
10097;BME280;5087;42.662;23.466;2023-08-06T03:25:07;94138.63;;;17.11;100.00
10097;BME280;5087;42.662;23.466;2023-08-06T03:27:35;94121.41;;;17.14;100.00
10097;BME280;5087;42.662;23.466;2023-08-06T03:30:03;94133.53;;;17.05;100.00
10097;BME280;5087;42.662;23.466;2023-08-06T03:32:33;94135.09;;;17.14;100.00
10097;BME280;5087;42.662;23.466;2023-08-06T03:35:00;94139.78;;;17.02;100.00
10097;BME280;5087;42.662;23.466;2023-08-06T03:37:29;94202.50;;;17.22;100.00
10097;BME280;5087;42.662;23.466;2023-08-06T03:39:56;94219.78;;;17.33;100.00
10097;BME280;5087;42.662;23.466;2023-08-06T03:42:24;94177.44;;;17.16;100.00
10097;BME280;5087;42.662;23.466;2023-08-06T03:44:51;94221.38;;;17.42;100.00
10097;BME280;5087;42.662;23.466;2023-08-06T03:47:18;94215.88;;;17.42;100.00
10097;BME280;5087;42.662;23.466;2023-08-06T03:49:50;94224.09;;;17.27;100.00
10097;BME280;5087;42.662;23.466;2023-08-06T03:52:17;94225.22;;;17.19;100.00
10097;BME280;5087;42.662;23.466;2023-08-06T03:54:44;94218.94;;;17.15;100.00
10097;BME280;5087;42.662;23.466;2023-08-06T03:57:11;94202.06;;;17.02;100.00
10097;BME280;5087;42.662;23.466;2023-08-06T03:59:38;94215.84;;;17.20;100.00
10097;BME280;5087;42.662;23.466;2023-08-06T04:02:06;94223.69;;;17.32;100.00
10097;BME280;5087;42.662;23.466;2023-08-06T04:04:33;94233.50;;;17.37;100.00
10097;BME280;5087;42.662;23.466;2023-08-06T04:07:02;94235.41;;;17.25;100.00
10097;BME280;5087;42.662;23.466;2023-08-06T04:09:29;94225.59;;;17.14;100.00
10097;BME280;5087;42.662;23.466;2023-08-06T04:11:57;94214.28;;;17.33;100.00
10097;BME280;5087;42.662;23.466;2023-08-06T04:14:27;94187.22;;;17.21;100.00
10097;BME280;5087;42.662;23.466;2023-08-06T04:16:57;94173.88;;;17.08;100.00
10097;BME280;5087;42.662;23.466;2023-08-06T04:19:24;94157.03;;;17.17;100.00
10097;BME280;5087;42.662;23.466;2023-08-06T04:21:57;94190.00;;;17.35;100.00
10097;BME280;5087;42.662;23.466;2023-08-06T04:24:26;94182.50;;;17.11;100.00
10097;BME280;5087;42.662;23.466;2023-08-06T04:26:54;94209.16;;;17.24;100.00
10097;BME280;5087;42.662;23.466;2023-08-06T04:29:23;94209.56;;;17.27;100.00
10097;BME280;5087;42.662;23.466;2023-08-06T04:31:50;94202.53;;;17.40;100.00
10097;BME280;5087;42.662;23.466;2023-08-06T04:34:17;94188.81;;;17.36;100.00
10097;BME280;5087;42.662;23.466;2023-08-06T04:36:45;94184.53;;;17.35;100.00
10097;BME280;5087;42.662;23.466;2023-08-06T04:39:12;94188.44;;;17.34;100.00
10097;BME280;5087;42.662;23.466;2023-08-06T04:41:41;94177.47;;;17.52;100.00
10097;BME280;5087;42.662;23.466;2023-08-06T04:44:08;94165.31;;;17.39;100.00
10097;BME280;5087;42.662;23.466;2023-08-06T04:46:35;94153.19;;;17.65;100.00
10097;BME280;5087;42.662;23.466;2023-08-06T04:49:03;94138.28;;;17.74;100.00
10097;BME280;5087;42.662;23.466;2023-08-06T04:51:34;94136.72;;;17.72;100.00
10097;BME280;5087;42.662;23.466;2023-08-06T04:54:01;94150.03;;;17.74;100.00
10097;BME280;5087;42.662;23.466;2023-08-06T04:56:28;94157.09;;;17.93;100.00
10097;BME280;5087;42.662;23.466;2023-08-06T04:59:00;94154.75;;;17.92;100.00
10097;BME280;5087;42.662;23.466;2023-08-06T05:01:28;94157.09;;;17.82;100.00
10097;BME280;5087;42.662;23.466;2023-08-06T05:03:58;94125.75;;;17.58;100.00
10097;BME280;5087;42.662;23.466;2023-08-06T05:06:26;94150.81;;;17.71;100.00
10097;BME280;5087;42.662;23.466;2023-08-06T05:08:53;94150.44;;;17.83;100.00
10097;BME280;5087;42.662;23.466;2023-08-06T05:11:20;94149.66;;;17.54;100.00
10097;BME280;5087;42.662;23.466;2023-08-06T05:13:48;94153.97;;;17.62;100.00
10097;BME280;5087;42.662;23.466;2023-08-06T05:16:16;94161.78;;;17.67;100.00
10097;BME280;5087;42.662;23.466;2023-08-06T05:18:53;94146.91;;;17.61;100.00
10097;BME280;5087;42.662;23.466;2023-08-06T05:21:21;94135.56;;;17.70;100.00
10097;BME280;5087;42.662;23.466;2023-08-06T05:23:51;94148.47;;;17.51;100.00
10097;BME280;5087;42.662;23.466;2023-08-06T05:26:19;94160.25;;;17.74;100.00
10097;BME280;5087;42.662;23.466;2023-08-06T05:28:46;94167.28;;;17.75;100.00
10097;BME280;5087;42.662;23.466;2023-08-06T05:31:13;94172.00;;;17.49;100.00
10097;BME280;5087;42.662;23.466;2023-08-06T05:33:42;94162.59;;;17.35;100.00
10097;BME280;5087;42.662;23.466;2023-08-06T05:36:10;94150.81;;;17.35;100.00
10097;BME280;5087;42.662;23.466;2023-08-06T05:38:37;94161.78;;;17.46;100.00
10097;BME280;5087;42.662;23.466;2023-08-06T05:41:05;94137.91;;;17.35;100.00
10097;BME280;5087;42.662;23.466;2023-08-06T05:43:34;94125.72;;;17.36;100.00
10097;BME280;5087;42.662;23.466;2023-08-06T05:46:01;94149.25;;;17.63;100.00
10097;BME280;5087;42.662;23.466;2023-08-06T05:48:30;94129.66;;;17.79;100.00
10097;BME280;5087;42.662;23.466;2023-08-06T05:51:00;94142.94;;;18.13;100.00
10097;BME280;5087;42.662;23.466;2023-08-06T05:53:27;94144.94;;;17.94;100.00
10097;BME280;5087;42.662;23.466;2023-08-06T05:55:54;94156.34;;;18.00;100.00
10097;BME280;5087;42.662;23.466;2023-08-06T05:58:24;94143.78;;;18.02;100.00
10097;BME280;5087;42.662;23.466;2023-08-06T06:00:52;94148.09;;;18.03;100.00
10097;BME280;5087;42.662;23.466;2023-08-06T06:03:19;94162.16;;;18.34;100.00
10097;BME280;5087;42.662;23.466;2023-08-06T06:05:47;94156.94;;;18.58;100.00
10097;BME280;5087;42.662;23.466;2023-08-06T06:08:16;94187.53;;;18.71;100.00
10097;BME280;5087;42.662;23.466;2023-08-06T06:10:43;94181.34;;;18.49;100.00
10097;BME280;5087;42.662;23.466;2023-08-06T06:13:10;94180.53;;;18.45;100.00
10097;BME280;5087;42.662;23.466;2023-08-06T06:15:38;94182.91;;;18.50;100.00
10097;BME280;5087;42.662;23.466;2023-08-06T06:18:05;94197.00;;;18.56;100.00
10097;BME280;5087;42.662;23.466;2023-08-06T06:20:32;94188.78;;;18.52;100.00
10097;BME280;5087;42.662;23.466;2023-08-06T06:23:00;94200.59;;;18.42;100.00
10097;BME280;5087;42.662;23.466;2023-08-06T06:25:31;94197.03;;;18.48;100.00
10097;BME280;5087;42.662;23.466;2023-08-06T06:27:58;94211.91;;;18.58;100.00
10097;BME280;5087;42.662;23.466;2023-08-06T06:30:25;94189.03;;;18.90;100.00
10097;BME280;5087;42.662;23.466;2023-08-06T06:32:53;94207.94;;;18.74;100.00
10097;BME280;5087;42.662;23.466;2023-08-06T06:35:20;94201.19;;;19.04;100.00
10097;BME280;5087;42.662;23.466;2023-08-06T06:37:47;94195.34;;;18.87;100.00
10097;BME280;5087;42.662;23.466;2023-08-06T06:40:15;94201.25;;;18.75;100.00
10097;BME280;5087;42.662;23.466;2023-08-06T06:42:44;94206.78;;;18.67;100.00
10097;BME280;5087;42.662;23.466;2023-08-06T06:45:12;94214.25;;;18.71;100.00
10097;BME280;5087;42.662;23.466;2023-08-06T06:47:39;94207.97;;;18.63;100.00
10097;BME280;5087;42.662;23.466;2023-08-06T06:50:07;94217.41;;;18.73;100.00
10097;BME280;5087;42.662;23.466;2023-08-06T06:52:35;94217.41;;;18.65;100.00
10097;BME280;5087;42.662;23.466;2023-08-06T06:55:02;94231.09;;;18.83;100.00
10097;BME280;5087;42.662;23.466;2023-08-06T06:57:30;94230.72;;;18.74;100.00
10097;BME280;5087;42.662;23.466;2023-08-06T06:59:58;94227.50;;;19.05;100.00
10097;BME280;5087;42.662;23.466;2023-08-06T07:02:27;94235.91;;;19.54;100.00
10097;BME280;5087;42.662;23.466;2023-08-06T07:04:54;94241.41;;;19.50;100.00
10097;BME280;5087;42.662;23.466;2023-08-06T07:07:23;94245.66;;;19.62;100.00
10097;BME280;5087;42.662;23.466;2023-08-06T07:09:51;94238.59;;;19.65;100.00
10097;BME280;5087;42.662;23.466;2023-08-06T07:12:18;94229.13;;;19.69;100.00
10097;BME280;5087;42.662;23.466;2023-08-06T07:14:58;94249.44;;;19.93;100.00
10097;BME280;5087;42.662;23.466;2023-08-06T07:17:26;94240.84;;;20.33;100.00
10097;BME280;5087;42.662;23.466;2023-08-06T07:19:53;94251.09;;;20.33;100.00
10097;BME280;5087;42.662;23.466;2023-08-06T07:22:21;94244.88;;;20.63;100.00
10097;BME280;5087;42.662;23.466;2023-08-06T07:24:48;94225.88;;;20.76;100.00
10097;BME280;5087;42.662;23.466;2023-08-06T07:27:15;94247.16;;;20.72;100.00
10097;BME280;5087;42.662;23.466;2023-08-06T07:29:43;94255.13;;;20.21;100.00
10097;BME280;5087;42.662;23.466;2023-08-06T07:32:11;94243.81;;;20.53;100.00
10097;BME280;5087;42.662;23.466;2023-08-06T07:34:39;94208.63;;;20.27;100.00
10097;BME280;5087;42.662;23.466;2023-08-06T07:37:06;94249.88;;;20.79;100.00
10097;BME280;5087;42.662;23.466;2023-08-06T07:39:33;94234.34;;;20.93;100.00
10097;BME280;5087;42.662;23.466;2023-08-06T07:42:01;94233.22;;;20.90;100.00
10097;BME280;5087;42.662;23.466;2023-08-06T07:44:31;94203.84;;;20.69;100.00
10097;BME280;5087;42.662;23.466;2023-08-06T07:46:58;94232.81;;;21.23;100.00
10097;BME280;5087;42.662;23.466;2023-08-06T07:49:27;94228.66;;;21.38;100.00
10097;BME280;5087;42.662;23.466;2023-08-06T07:51:54;94242.31;;;21.49;100.00
10097;BME280;5087;42.662;23.466;2023-08-06T07:54:22;94237.63;;;21.46;100.00
10097;BME280;5087;42.662;23.466;2023-08-06T07:56:50;94231.06;;;21.67;100.00
10097;BME280;5087;42.662;23.466;2023-08-06T07:59:19;94215.47;;;21.80;100.00
10097;BME280;5087;42.662;23.466;2023-08-06T08:01:46;94183.59;;;22.00;100.00
10097;BME280;5087;42.662;23.466;2023-08-06T08:04:13;94203.13;;;22.36;100.00
10097;BME280;5087;42.662;23.466;2023-08-06T08:06:43;94208.28;;;22.58;100.00
10097;BME280;5087;42.662;23.466;2023-08-06T08:09:10;94218.13;;;22.11;100.00
10097;BME280;5087;42.662;23.466;2023-08-06T08:11:39;94222.38;;;21.92;100.00
10097;BME280;5087;42.662;23.466;2023-08-06T08:14:06;94226.47;;;21.57;100.00
10097;BME280;5087;42.662;23.466;2023-08-06T08:16:34;94216.59;;;21.56;100.00
10097;BME280;5087;42.662;23.466;2023-08-06T08:19:01;94226.25;;;21.98;100.00
10097;BME280;5087;42.662;23.466;2023-08-06T08:21:29;94186.56;;;21.61;100.00
10097;BME280;5087;42.662;23.466;2023-08-06T08:23:59;94232.94;;;21.43;100.00
10097;BME280;5087;42.662;23.466;2023-08-06T08:26:27;94225.84;;;22.24;100.00
10097;BME280;5087;42.662;23.466;2023-08-06T08:28:54;94227.97;;;22.84;100.00
10097;BME280;5087;42.662;23.466;2023-08-06T08:31:23;94227.81;;;22.91;100.00
10097;BME280;5087;42.662;23.466;2023-08-06T08:33:50;94218.25;;;23.16;100.00
10097;BME280;5087;42.662;23.466;2023-08-06T08:36:17;94221.53;;;23.67;100.00
10097;BME280;5087;42.662;23.466;2023-08-06T08:38:44;94161.72;;;23.33;100.00
10097;BME280;5087;42.662;23.466;2023-08-06T08:41:13;94184.13;;;23.76;100.00
10097;BME280;5087;42.662;23.466;2023-08-06T08:43:40;94190.75;;;23.98;100.00
10097;BME280;5087;42.662;23.466;2023-08-06T08:46:10;94189.94;;;24.47;100.00
10097;BME280;5087;42.662;23.466;2023-08-06T08:48:39;94203.22;;;24.40;100.00
10097;BME280;5087;42.662;23.466;2023-08-06T08:51:07;94204.63;;;23.98;100.00
10097;BME280;5087;42.662;23.466;2023-08-06T08:53:42;94197.88;;;23.99;100.00
10097;BME280;5087;42.662;23.466;2023-08-06T08:56:14;94191.97;;;23.97;100.00
10097;BME280;5087;42.662;23.466;2023-08-06T08:58:41;94182.53;;;23.95;100.00
10097;BME280;5087;42.662;23.466;2023-08-06T09:01:09;94188.47;;;24.26;100.00
10097;BME280;5087;42.662;23.466;2023-08-06T09:03:37;94175.19;;;24.50;100.00
10097;BME280;5087;42.662;23.466;2023-08-06T09:06:04;94189.19;;;23.97;100.00
10097;BME280;5087;42.662;23.466;2023-08-06T09:08:36;94177.16;;;24.04;100.00
10097;BME280;5087;42.662;23.466;2023-08-06T09:11:05;94146.03;;;24.13;100.00
10097;BME280;5087;42.662;23.466;2023-08-06T09:13:40;94150.66;;;25.08;100.00
10097;BME280;5087;42.662;23.466;2023-08-06T09:16:08;94161.38;;;24.63;100.00
10097;BME280;5087;42.662;23.466;2023-08-06T09:18:38;94145.84;;;24.95;100.00
10097;BME280;5087;42.662;23.466;2023-08-06T09:21:06;94137.16;;;24.80;100.00
10097;BME280;5087;42.662;23.466;2023-08-06T09:23:40;94158.50;;;24.21;100.00
10097;BME280;5087;42.662;23.466;2023-08-06T09:26:11;94147.03;;;24.36;100.00
10097;BME280;5087;42.662;23.466;2023-08-06T09:28:41;94118.00;;;24.40;100.00
10097;BME280;5087;42.662;23.466;2023-08-06T09:31:09;94130.72;;;24.96;100.00
10097;BME280;5087;42.662;23.466;2023-08-06T09:33:37;94160.28;;;25.58;100.00
10097;BME280;5087;42.662;23.466;2023-08-06T09:36:11;94111.09;;;26.42;100.00
10097;BME280;5087;42.662;23.466;2023-08-06T09:38:39;94149.72;;;26.40;100.00
10097;BME280;5087;42.662;23.466;2023-08-06T09:41:26;94150.94;;;25.78;100.00
10097;BME280;5087;42.662;23.466;2023-08-06T09:43:59;94132.22;;;25.27;100.00
10097;BME280;5087;42.662;23.466;2023-08-06T09:46:32;94132.66;;;26.03;100.00
10097;BME280;5087;42.662;23.466;2023-08-06T09:49:02;94151.97;;;26.32;100.00
10097;BME280;5087;42.662;23.466;2023-08-06T09:51:34;94142.91;;;25.80;100.00
10097;BME280;5087;42.662;23.466;2023-08-06T09:54:01;94132.94;;;25.70;100.00
10097;BME280;5087;42.662;23.466;2023-08-06T09:56:30;94131.38;;;25.43;100.00
10097;BME280;5087;42.662;23.466;2023-08-06T09:59:08;94128.31;;;26.02;100.00
10097;BME280;5087;42.662;23.466;2023-08-06T10:01:38;94113.53;;;26.05;100.00
10097;BME280;5087;42.662;23.466;2023-08-06T10:04:06;94123.31;;;25.97;100.00
10097;BME280;5087;42.662;23.466;2023-08-06T10:06:38;94156.44;;;26.04;100.00
10097;BME280;5087;42.662;23.466;2023-08-06T10:09:05;94154.03;;;26.41;100.00
10097;BME280;5087;42.662;23.466;2023-08-06T10:11:33;94158.59;;;27.05;100.00
10097;BME280;5087;42.662;23.466;2023-08-06T10:14:08;94148.56;;;26.50;98.42
10097;BME280;5087;42.662;23.466;2023-08-06T10:16:39;94145.69;;;25.93;100.00
10097;BME280;5087;42.662;23.466;2023-08-06T10:19:16;94163.94;;;25.68;100.00
10097;BME280;5087;42.662;23.466;2023-08-06T10:22:09;94145.91;;;25.60;100.00
10097;BME280;5087;42.662;23.466;2023-08-06T10:24:58;94162.72;;;25.82;100.00
10097;BME280;5087;42.662;23.466;2023-08-06T10:27:31;94159.50;;;25.45;100.00
10097;BME280;5087;42.662;23.466;2023-08-06T10:30:27;94161.38;;;25.48;100.00
10097;BME280;5087;42.662;23.466;2023-08-06T10:33:00;94137.28;;;25.58;100.00
10097;BME280;5087;42.662;23.466;2023-08-06T10:35:34;94174.63;;;25.02;98.80
10097;BME280;5087;42.662;23.466;2023-08-06T10:38:11;94142.56;;;24.55;100.00
10097;BME280;5087;42.662;23.466;2023-08-06T10:40:40;94147.34;;;24.54;100.00
10097;BME280;5087;42.662;23.466;2023-08-06T10:43:29;94188.66;;;24.81;100.00
10097;BME280;5087;42.662;23.466;2023-08-06T10:46:10;94175.56;;;24.65;100.00
10097;BME280;5087;42.662;23.466;2023-08-06T10:48:38;94185.69;;;24.43;100.00
10097;BME280;5087;42.662;23.466;2023-08-06T10:51:11;94193.84;;;24.33;100.00
10097;BME280;5087;42.662;23.466;2023-08-06T10:53:42;94196.63;;;23.84;100.00
10097;BME280;5087;42.662;23.466;2023-08-06T10:56:13;94201.03;;;23.81;100.00
10097;BME280;5087;42.662;23.466;2023-08-06T10:58:41;94181.47;;;23.35;100.00
10097;BME280;5087;42.662;23.466;2023-08-06T11:01:11;94184.59;;;23.37;100.00
10097;BME280;5087;42.662;23.466;2023-08-06T11:03:42;94208.44;;;23.51;100.00
10097;BME280;5087;42.662;23.466;2023-08-06T11:06:10;94207.88;;;23.40;100.00
10097;BME280;5087;42.662;23.466;2023-08-06T11:08:40;94221.09;;;23.52;100.00
10097;BME280;5087;42.662;23.466;2023-08-06T11:11:12;94218.41;;;23.65;100.00
10097;BME280;5087;42.662;23.466;2023-08-06T11:13:39;94207.88;;;23.77;100.00
10097;BME280;5087;42.662;23.466;2023-08-06T11:16:08;94214.25;;;23.74;100.00
10097;BME280;5087;42.662;23.466;2023-08-06T11:18:37;94200.28;;;23.61;100.00
10097;BME280;5087;42.662;23.466;2023-08-06T11:21:05;94217.38;;;23.76;100.00
10097;BME280;5087;42.662;23.466;2023-08-06T11:23:34;94222.47;;;24.14;100.00
10097;BME280;5087;42.662;23.466;2023-08-06T11:26:04;94229.03;;;24.37;100.00
10097;BME280;5087;42.662;23.466;2023-08-06T11:28:32;94190.66;;;24.35;100.00
10097;BME280;5087;42.662;23.466;2023-08-06T11:30:59;94195.63;;;24.57;100.00
10097;BME280;5087;42.662;23.466;2023-08-06T11:33:29;94217.59;;;24.34;100.00
10097;BME280;5087;42.662;23.466;2023-08-06T11:36:01;94224.88;;;23.95;100.00
10097;BME280;5087;42.662;23.466;2023-08-06T11:38:31;94200.56;;;23.66;100.00
10097;BME280;5087;42.662;23.466;2023-08-06T11:40:59;94236.84;;;24.25;100.00
10097;BME280;5087;42.662;23.466;2023-08-06T11:43:33;94205.44;;;24.45;100.00
10097;BME280;5087;42.662;23.466;2023-08-06T11:46:03;94237.66;;;24.72;99.24
10097;BME280;5087;42.662;23.466;2023-08-06T11:48:33;94229.69;;;24.74;94.00
10097;BME280;5087;42.662;23.466;2023-08-06T11:51:22;94192.13;;;24.23;97.36
10097;BME280;5087;42.662;23.466;2023-08-06T11:53:49;94194.38;;;24.28;100.00
10097;BME280;5087;42.662;23.466;2023-08-06T11:56:17;94173.28;;;24.01;100.00
10097;BME280;5087;42.662;23.466;2023-08-06T11:58:44;94201.75;;;24.35;100.00
10097;BME280;5087;42.662;23.466;2023-08-06T12:01:13;94216.22;;;24.26;100.00
10097;BME280;5087;42.662;23.466;2023-08-06T12:03:41;94231.59;;;24.60;100.00
10097;BME280;5087;42.662;23.466;2023-08-06T12:06:08;94206.72;;;24.57;100.00
10097;BME280;5087;42.662;23.466;2023-08-06T12:08:37;94184.09;;;23.96;100.00
10097;BME280;5087;42.662;23.466;2023-08-06T12:11:06;94215.94;;;24.37;100.00
10097;BME280;5087;42.662;23.466;2023-08-06T12:13:35;94212.34;;;23.87;100.00
10097;BME280;5087;42.662;23.466;2023-08-06T12:16:03;94221.94;;;24.19;100.00
10097;BME280;5087;42.662;23.466;2023-08-06T12:18:33;94222.63;;;24.40;100.00
10097;BME280;5087;42.662;23.466;2023-08-06T12:21:03;94213.53;;;24.85;100.00
10097;BME280;5087;42.662;23.466;2023-08-06T12:23:32;94205.53;;;25.17;100.00
10097;BME280;5087;42.662;23.466;2023-08-06T12:26:05;94204.06;;;25.80;100.00
10097;BME280;5087;42.662;23.466;2023-08-06T12:28:35;94164.97;;;26.70;100.00
10097;BME280;5087;42.662;23.466;2023-08-06T12:31:03;94164.81;;;26.87;95.43
10097;BME280;5087;42.662;23.466;2023-08-06T12:33:36;94176.69;;;26.17;90.24
10097;BME280;5087;42.662;23.466;2023-08-06T12:36:05;94184.59;;;25.93;95.26
10097;BME280;5087;42.662;23.466;2023-08-06T12:38:35;94185.56;;;26.38;91.97
10097;BME280;5087;42.662;23.466;2023-08-06T12:41:02;94197.00;;;26.40;94.50
10097;BME280;5087;42.662;23.466;2023-08-06T12:43:32;94192.69;;;26.39;85.17
10097;BME280;5087;42.662;23.466;2023-08-06T12:46:00;94177.13;;;26.29;87.08
10097;BME280;5087;42.662;23.466;2023-08-06T12:48:27;94190.63;;;25.91;95.71
10097;BME280;5087;42.662;23.466;2023-08-06T12:50:54;94191.94;;;25.87;88.18
10097;BME280;5087;42.662;23.466;2023-08-06T12:53:28;94194.31;;;25.63;92.28
10097;BME280;5087;42.662;23.466;2023-08-06T12:55:55;94183.59;;;26.00;94.62
10097;BME280;5087;42.662;23.466;2023-08-06T12:58:26;94185.81;;;26.05;91.36
10097;BME280;5087;42.662;23.466;2023-08-06T13:00:55;94161.84;;;25.85;89.58